Time;durP1;ratioP1;P1;durP2;ratioP2;P2;SDS_P1;SDS_P2;PMS_P1;PMS_P2;Temp;Humidity;BMP_temperature;BMP_pressure;BME280_temperature;BME280_humidity;BME280_pressure;Samples;Min_cycle;Max_cycle;Signal;HPM_P1;HPM_P2
2022/05/12 00:02:12;;;;;;;2.00;1.10;;;22.10;54.50;;;;;;4959424;28;87714;-79
2022/05/12 00:04:39;;;;;;;3.17;1.30;;;22.10;54.50;;;;;;4974241;28;87468;-78
2022/05/12 00:07:05;;;;;;;1.73;1.00;;;22.10;54.60;;;;;;4959951;28;87360;-78
2022/05/12 00:09:31;;;;;;;1.95;1.15;;;22.10;54.40;;;;;;4960340;28;87682;-78
2022/05/12 00:11:57;;;;;;;2.10;1.20;;;22.10;54.40;;;;;;4960165;28;86147;-78
2022/05/12 00:14:23;;;;;;;2.38;1.00;;;22.10;54.40;;;;;;4959819;28;86907;-78
2022/05/12 00:16:48;;;;;;;0.93;0.90;;;22.10;54.40;;;;;;4959173;28;87005;-78
2022/05/12 00:19:14;;;;;;;2.33;1.10;;;22.10;54.60;;;;;;4958496;28;88561;-79
2022/05/12 00:21:40;;;;;;;3.45;1.55;;;22.10;54.40;;;;;;4959235;28;88143;-79
2022/05/12 00:24:06;;;;;;;3.17;1.00;;;22.10;54.40;;;;;;4957886;28;87602;-78
2022/05/12 00:26:35;;;;;;;1.98;1.50;;;22.10;54.50;;;;;;4958363;28;86950;-78
2022/05/12 00:29:05;;;;;;;1.52;1.02;;;22.10;54.50;;;;;;4958687;28;87366;-79
2022/05/12 00:31:31;;;;;;;2.75;1.25;;;22.10;54.50;;;;;;4958332;28;88403;-78
2022/05/12 00:33:56;;;;;;;2.88;1.20;;;22.10;54.50;;;;;;4975179;28;87531;-78
2022/05/12 00:36:22;;;;;;;1.17;0.90;;;22.10;54.60;;;;;;5015426;22;86289;-73
2022/05/12 00:41:39;;;;;;;3.05;1.35;;;22.10;54.80;;;;;;4938821;28;90343;-73
2022/05/12 00:44:08;;;;;;;2.03;1.27;;;22.10;54.60;;;;;;4938252;28;87839;-73
2022/05/12 00:46:38;;;;;;;1.60;0.85;;;22.10;54.70;;;;;;4938928;28;87708;-73
2022/05/12 00:49:15;;;;;;;2.08;1.17;;;22.10;54.80;;;;;;4940074;28;88087;-73
2022/05/12 00:51:48;;;;;;;2.08;1.10;;;22.10;54.70;;;;;;4939716;28;88553;-73
2022/05/12 00:54:29;;;;;;;1.27;1.00;;;22.10;54.90;;;;;;4938684;28;86839;-73
2022/05/12 00:56:56;;;;;;;2.20;0.98;;;22.10;54.80;;;;;;4934455;28;89015;-73
2022/05/12 00:59:30;;;;;;;1.55;1.08;;;22.10;54.80;;;;;;4954026;28;90658;-73
2022/05/12 01:02:00;;;;;;;2.35;1.10;;;22.10;55.40;;;;;;4940365;28;87863;-73
2022/05/12 01:04:28;;;;;;;1.95;1.00;;;22.00;54.90;;;;;;4940496;28;87230;-74
2022/05/12 01:06:54;;;;;;;1.35;1.00;;;22.10;54.90;;;;;;4936290;28;89570;-73
2022/05/12 01:09:20;;;;;;;2.78;1.52;;;22.10;55.00;;;;;;4937537;28;91601;-73
2022/05/12 01:11:48;;;;;;;1.30;1.02;;;22.10;55.10;;;;;;4938603;28;88770;-73
2022/05/12 01:14:17;;;;;;;1.40;1.02;;;22.00;55.20;;;;;;4939214;28;87381;-73
2022/05/12 01:16:52;;;;;;;1.40;1.00;;;22.10;55.90;;;;;;4939594;28;87296;-73
2022/05/12 01:19:21;;;;;;;3.78;1.13;;;22.10;55.30;;;;;;4938726;28;88656;-73
2022/05/12 01:21:47;;;;;;;1.13;1.02;;;22.10;55.20;;;;;;4937728;28;90819;-73
2022/05/12 01:24:20;;;;;;;2.05;1.17;;;22.00;55.10;;;;;;4939783;28;86928;-73
2022/05/12 01:26:47;;;;;;;2.08;1.10;;;22.00;55.10;;;;;;4940072;28;86662;-73
2022/05/12 01:29:13;;;;;;;2.28;1.30;;;22.00;55.00;;;;;;4938026;28;91255;-73
2022/05/12 01:31:39;;;;;;;3.25;0.85;;;22.00;55.20;;;;;;4937702;28;89782;-73
2022/05/12 01:34:07;;;;;;;1.90;1.00;;;22.00;55.30;;;;;;4937818;28;88320;-73
2022/05/12 01:36:34;;;;;;;0.93;0.80;;;22.00;55.30;;;;;;4938928;28;87023;-73
2022/05/12 01:39:00;;;;;;;1.65;1.00;;;22.00;55.30;;;;;;4938191;28;91200;-73
2022/05/12 01:41:26;;;;;;;3.03;1.10;;;22.00;55.50;;;;;;4939477;28;87230;-73
2022/05/12 01:43:52;;;;;;;2.35;1.23;;;22.00;55.50;;;;;;4940158;28;86984;-73
2022/05/12 01:46:18;;;;;;;2.20;1.15;;;22.00;55.50;;;;;;4939493;28;87366;-73
2022/05/12 01:48:43;;;;;;;1.58;1.00;;;22.00;55.60;;;;;;4939562;28;88256;-73
2022/05/12 01:51:09;;;;;;;1.17;1.05;;;22.00;55.40;;;;;;4939419;28;87714;-73
2022/05/12 01:53:35;;;;;;;2.15;1.10;;;22.00;55.30;;;;;;4939781;28;87219;-74
2022/05/12 01:56:09;;;;;;;2.70;1.48;;;22.00;55.50;;;;;;4938831;28;86930;-75
2022/05/12 01:58:35;;;;;;;2.15;0.90;;;22.00;55.50;;;;;;4936216;28;92654;-73
2022/05/12 02:01:00;;;;;;;1.75;1.20;;;22.00;55.90;;;;;;4938782;28;88218;-74
2022/05/12 02:03:26;;;;;;;1.90;1.23;;;22.00;55.80;;;;;;4939775;28;87184;-73
2022/05/12 02:05:54;;;;;;;2.10;1.10;;;22.00;55.50;;;;;;4939427;28;86946;-73
2022/05/12 02:08:22;;;;;;;1.55;1.10;;;22.00;55.60;;;;;;4939107;28;87542;-73
2022/05/12 02:10:51;;;;;;;1.25;0.90;;;22.00;55.60;;;;;;4939295;28;87344;-73
2022/05/12 02:13:20;;;;;;;1.00;0.77;;;22.00;55.70;;;;;;4939224;28;86910;-74
2022/05/12 02:15:48;;;;;;;1.00;0.88;;;22.00;55.50;;;;;;4938198;28;90174;-73
2022/05/12 02:18:17;;;;;;;1.33;1.00;;;22.00;55.60;;;;;;4939193;28;88735;-74
2022/05/12 02:20:42;;;;;;;1.42;1.00;;;22.00;55.70;;;;;;4942061;28;88169;-74
2022/05/12 02:23:11;;;;;;;1.60;1.00;;;22.00;55.50;;;;;;4941249;28;88331;-74
2022/05/12 02:25:37;;;;;;;1.07;0.90;;;22.00;55.70;;;;;;4941776;28;87125;-74
2022/05/12 02:28:05;;;;;;;0.82;0.80;;;22.00;55.60;;;;;;4941902;28;87603;-73
2022/05/12 02:30:35;;;;;;;1.40;1.10;;;22.00;55.70;;;;;;4940665;28;91644;-73
2022/05/12 02:33:01;;;;;;;1.23;1.13;;;22.00;55.60;;;;;;4941258;28;87347;-74
2022/05/12 02:35:28;;;;;;;1.88;1.27;;;22.00;55.60;;;;;;4940860;28;87008;-74
2022/05/12 02:37:54;;;;;;;1.70;1.30;;;22.00;55.70;;;;;;4941743;28;87681;-74
2022/05/12 02:40:25;;;;;;;1.15;1.05;;;22.00;55.60;;;;;;4941970;28;86891;-74
2022/05/12 02:42:50;;;;;;;1.00;0.75;;;21.90;55.70;;;;;;4940160;28;87010;-74
2022/05/12 02:45:16;;;;;;;2.20;1.02;;;22.00;55.70;;;;;;4941840;28;87655;-73
2022/05/12 02:47:45;;;;;;;1.45;0.90;;;21.90;55.70;;;;;;4940723;28;89098;-73
2022/05/12 02:50:17;;;;;;;1.40;0.80;;;21.90;55.90;;;;;;4941086;28;88615;-74
2022/05/12 02:52:43;;;;;;;1.98;1.00;;;21.90;55.70;;;;;;4940101;28;87107;-73
2022/05/12 02:55:10;;;;;;;1.60;0.95;;;21.90;56.00;;;;;;4942176;28;86895;-74
2022/05/12 02:57:35;;;;;;;4.57;1.40;;;21.90;55.90;;;;;;4942051;28;87671;-73
2022/05/12 03:00:04;;;;;;;1.45;1.00;;;21.90;55.90;;;;;;4941718;28;88243;-73
2022/05/12 03:02:30;;;;;;;1.52;1.35;;;21.90;56.00;;;;;;4940188;28;87180;-74
2022/05/12 03:04:56;;;;;;;1.92;1.35;;;21.90;55.80;;;;;;4941568;28;86734;-74
2022/05/12 03:07:27;;;;;;;1.33;1.00;;;21.90;55.80;;;;;;4939966;28;90016;-74
2022/05/12 03:09:55;;;;;;;1.40;1.00;;;21.90;55.90;;;;;;4941558;28;87261;-74
2022/05/12 03:12:21;;;;;;;2.13;1.07;;;21.90;55.90;;;;;;4938500;28;89175;-74
2022/05/12 03:14:47;;;;;;;1.45;1.02;;;21.90;56.10;;;;;;4940681;28;87283;-74
2022/05/12 03:17:12;;;;;;;1.27;1.00;;;21.90;56.10;;;;;;4941581;28;88164;-74
2022/05/12 03:19:38;;;;;;;1.42;1.10;;;21.90;56.10;;;;;;4941156;28;87197;-74
2022/05/12 03:22:04;;;;;;;1.25;1.10;;;21.90;56.10;;;;;;4941285;28;86989;-74
2022/05/12 03:24:29;;;;;;;1.88;1.00;;;21.90;56.20;;;;;;4955373;28;89843;-73
2022/05/12 03:26:55;;;;;;;1.88;1.02;;;21.90;56.10;;;;;;4933193;28;89013;-73
2022/05/12 03:29:21;;;;;;;1.42;1.10;;;21.90;56.20;;;;;;4939727;28;90257;-73
2022/05/12 03:31:49;;;;;;;1.70;1.02;;;21.90;56.20;;;;;;4938460;28;87078;-74
2022/05/12 03:34:15;;;;;;;2.45;1.20;;;21.90;56.10;;;;;;4954402;28;90505;-73
2022/05/12 03:36:40;;;;;;;1.17;0.85;;;21.90;56.10;;;;;;4938242;28;92054;-74
2022/05/12 03:39:13;;;;;;;2.00;1.10;;;21.90;56.10;;;;;;4940797;28;88387;-73
2022/05/12 03:41:38;;;;;;;2.75;0.90;;;21.90;56.20;;;;;;4940476;28;87555;-74
2022/05/12 03:46:48;;;;;;;1.70;1.20;;;21.90;56.20;;;;;;4936703;28;87157;-73
2022/05/12 03:49:17;;;;;;;1.60;1.25;;;21.90;56.10;;;;;;4940867;28;87869;-74
2022/05/12 03:51:42;;;;;;;1.30;1.00;;;21.90;56.20;;;;;;4940879;28;87774;-74
2022/05/12 03:54:08;;;;;;;2.25;1.30;;;21.90;56.20;;;;;;4940877;28;86707;-73
2022/05/12 03:56:36;;;;;;;1.27;1.00;;;21.90;56.20;;;;;;4955127;28;89733;-73
2022/05/12 03:59:07;;;;;;;2.28;1.00;;;21.90;56.20;;;;;;4938993;28;90788;-74
2022/05/12 04:01:34;;;;;;;2.25;1.20;;;21.90;56.10;;;;;;4940167;28;88046;-73
2022/05/12 04:04:00;;;;;;;3.30;1.33;;;21.90;56.00;;;;;;4940474;28;86848;-74
2022/05/12 04:06:25;;;;;;;0.90;0.80;;;21.90;56.10;;;;;;4940511;28;88116;-74
2022/05/12 04:08:51;;;;;;;1.52;1.00;;;21.90;56.10;;;;;;4940062;28;88341;-74
2022/05/12 04:11:17;;;;;;;1.52;1.05;;;21.90;56.30;;;;;;4940258;28;86893;-74
2022/05/12 04:13:45;;;;;;;1.25;1.10;;;21.90;56.30;;;;;;4940956;28;86882;-74
2022/05/12 04:16:23;;;;;;;2.13;1.63;;;21.80;56.10;;;;;;4941117;28;88043;-73
2022/05/12 04:18:52;;;;;;;1.52;1.00;;;21.90;56.20;;;;;;4939342;28;91238;-73
2022/05/12 04:21:17;;;;;;;1.38;1.10;;;21.80;56.00;;;;;;4940878;28;87029;-74
2022/05/12 04:23:44;;;;;;;1.10;1.00;;;21.80;56.10;;;;;;4940530;28;87200;-73
2022/05/12 04:26:12;;;;;;;2.08;1.05;;;21.80;56.10;;;;;;4938261;28;90246;-74
2022/05/12 04:28:38;;;;;;;0.90;0.80;;;21.80;56.10;;;;;;4953638;28;91017;-73
2022/05/12 04:31:05;;;;;;;0.95;0.93;;;21.80;56.10;;;;;;4939600;28;86997;-74
2022/05/12 04:36:16;;;;;;;1.20;0.93;;;21.80;56.00;;;;;;4940324;28;86937;-74
2022/05/12 04:38:41;;;;;;;2.00;1.10;;;21.80;56.00;;;;;;4940740;28;87283;-73
2022/05/12 04:41:08;;;;;;;1.85;0.90;;;21.80;56.20;;;;;;4940734;28;87208;-74
2022/05/12 04:43:37;;;;;;;1.40;1.30;;;21.80;56.00;;;;;;4941249;28;86184;-73
2022/05/12 04:46:03;;;;;;;;;;;21.80;56.10;;;;;;4940616;28;88415;-73
2022/05/12 04:48:31;;;;;;;1.30;1.00;;;21.80;56.20;;;;;;4938994;28;90573;-74
2022/05/12 04:50:58;;;;;;;1.15;1.05;;;21.80;56.00;;;;;;4938988;28;88158;-74
2022/05/12 04:53:25;;;;;;;1.50;1.13;;;21.80;55.90;;;;;;4939899;28;87102;-74
2022/05/12 04:55:51;;;;;;;1.05;0.95;;;21.80;56.10;;;;;;4939845;28;87499;-74
2022/05/12 04:58:19;;;;;;;1.15;1.02;;;21.80;56.10;;;;;;4938276;28;91457;-74
2022/05/12 05:00:45;;;;;;;1.00;0.88;;;21.80;56.10;;;;;;4937299;28;88225;-73
2022/05/12 05:03:12;;;;;;;1.17;1.08;;;21.80;56.20;;;;;;4940080;28;86875;-74
2022/05/12 05:05:38;;;;;;;1.20;1.10;;;21.80;56.10;;;;;;4939577;28;88501;-73
2022/05/12 05:08:05;;;;;;;1.40;1.00;;;21.80;56.10;;;;;;4940189;28;87271;-73
2022/05/12 05:10:32;;;;;;;2.47;1.50;;;21.80;56.20;;;;;;4939953;28;86923;-74
2022/05/12 05:13:21;;;;;;;3.45;1.88;;;21.80;55.80;;;;;;4937608;28;87391;-75
2022/05/12 05:15:53;;;;;;;6.82;1.48;;;21.80;56.00;;;;;;4936904;28;90959;-73
2022/05/12 05:18:23;;;;;;;2.20;0.95;;;21.80;56.10;;;;;;4950051;28;91423;-73
2022/05/12 05:20:50;;;;;;;1.80;1.30;;;21.80;56.00;;;;;;4938546;28;87453;-73
2022/05/12 05:23:16;;;;;;;2.47;2.03;;;21.80;56.20;;;;;;4938544;28;87514;-74
2022/05/12 05:25:50;;;;;;;4.72;2.53;;;21.80;56.30;;;;;;4937287;28;89529;-73
2022/05/12 05:28:16;;;;;;;5.10;2.30;;;21.80;56.80;;;;;;4938838;28;89928;-73
2022/05/12 05:30:42;;;;;;;3.42;2.28;;;21.90;57.40;;;;;;4954081;22;87079;-73
2022/05/12 05:33:08;;;;;;;3.38;2.03;;;21.90;57.20;;;;;;4959391;28;86907;-73
2022/05/12 05:35:35;;;;;;;2.33;1.73;;;21.90;57.10;;;;;;4958599;28;87744;-73
2022/05/12 05:38:01;;;;;;;4.25;1.88;;;21.90;57.00;;;;;;4958410;28;87116;-72
2022/05/12 05:40:28;;;;;;;3.15;1.70;;;21.90;56.10;;;;;;4955506;28;89000;-73
2022/05/12 05:42:57;;;;;;;2.30;1.80;;;21.90;56.00;;;;;;4951314;28;90305;-72
2022/05/12 05:45:25;;;;;;;3.20;1.80;;;21.80;56.10;;;;;;4958953;28;88139;-73
2022/05/12 05:47:55;;;;;;;4.22;2.25;;;21.80;56.30;;;;;;4955785;28;90355;-73
2022/05/12 05:50:27;;;;;;;4.57;1.80;;;21.80;56.30;;;;;;4958120;28;86967;-73
2022/05/12 05:55:37;;;;;;;4.28;2.05;;;21.80;56.20;;;;;;4962259;28;87263;-72
2022/05/12 05:58:05;;;;;;;5.10;2.10;;;21.80;56.10;;;;;;4961222;28;87648;-72
2022/05/12 06:00:31;;;;;;;3.50;2.00;;;21.80;56.10;;;;;;4960351;28;87159;-74
2022/05/12 06:02:58;;;;;;;4.65;2.20;;;21.80;56.20;;;;;;4962051;28;87858;-71
2022/05/12 06:05:24;;;;;;;4.10;2.10;;;21.80;55.90;;;;;;4961399;28;89010;-70
2022/05/12 06:07:50;;;;;;;4.68;2.03;;;21.80;55.90;;;;;;4961246;28;87759;-70
2022/05/12 06:10:16;;;;;;;5.55;2.50;;;21.80;55.80;;;;;;4962253;28;86987;-72
2022/05/12 06:12:41;;;;;;;4.53;2.30;;;21.80;55.90;;;;;;4962222;28;87107;-72
2022/05/12 06:15:09;;;;;;;6.10;2.72;;;21.90;56.00;;;;;;4961706;28;88088;-71
2022/05/12 06:17:36;;;;;;;5.70;2.95;;;21.90;55.90;;;;;;4956797;28;87969;-72
2022/05/12 06:20:06;;;;;;;11.77;3.15;;;21.90;55.80;;;;;;4960258;28;86969;-72
2022/05/12 06:22:32;;;;;;;11.60;4.05;;;21.90;55.70;;;;;;4962501;28;86189;-71
2022/05/12 06:24:58;;;;;;;11.68;4.03;;;21.90;55.50;;;;;;4959475;28;87205;-72
2022/05/12 06:27:24;;;;;;;12.60;3.95;;;21.80;55.10;;;;;;4958864;28;88019;-73
2022/05/12 06:29:51;;;;;;;7.90;4.22;;;21.70;55.10;;;;;;4957371;28;87953;-73
2022/05/12 06:32:19;;;;;;;9.90;4.15;;;21.70;54.90;;;;;;4960833;28;87359;-73
2022/05/12 06:34:46;;;;;;;12.40;4.30;;;21.70;55.00;;;;;;4951455;28;88638;-73
2022/05/12 06:37:12;;;;;;;11.68;3.90;;;21.70;55.30;;;;;;4955668;28;87915;-72
2022/05/12 06:39:38;;;;;;;11.95;3.78;;;21.70;55.20;;;;;;4961080;28;86873;-73
2022/05/12 06:42:04;;;;;;;9.88;3.92;;;21.70;55.20;;;;;;4957087;28;90217;-72
2022/05/12 06:44:30;;;;;;;10.88;4.38;;;21.60;55.30;;;;;;4955234;28;88339;-72
2022/05/12 06:46:56;;;;;;;11.60;4.10;;;21.60;55.20;;;;;;4951059;28;87270;-72
2022/05/12 06:49:22;;;;;;;8.75;3.50;;;21.60;55.50;;;;;;4958461;28;87102;-73
2022/05/12 06:51:48;;;;;;;9.77;4.05;;;21.70;55.50;;;;;;4957264;28;87518;-72
2022/05/12 06:54:14;;;;;;;10.20;4.10;;;21.70;55.40;;;;;;4969092;28;92555;-73
2022/05/12 06:56:41;;;;;;;9.65;4.30;;;21.70;55.40;;;;;;4959509;28;87340;-72
2022/05/12 06:59:07;;;;;;;11.13;4.68;;;21.80;55.60;;;;;;4958500;28;86921;-73
2022/05/12 07:01:34;;;;;;;16.45;4.68;;;21.80;55.50;;;;;;4954907;28;86876;-73
2022/05/12 07:04:00;;;;;;;15.48;4.47;;;21.80;55.40;;;;;;4960760;28;87707;-72
2022/05/12 07:06:27;;;;;;;15.48;4.68;;;21.80;55.40;;;;;;4959214;28;88677;-72
2022/05/12 07:08:52;;;;;;;14.90;4.22;;;21.90;56.10;;;;;;4960294;28;87449;-72
2022/05/12 07:11:18;;;;;;;14.25;3.47;;;21.90;55.60;;;;;;4959056;28;86998;-72
2022/05/12 07:13:44;;;;;;;13.25;4.53;;;21.90;55.90;;;;;;4959568;28;88206;-72
2022/05/12 07:16:10;;;;;;;15.48;4.93;;;21.90;55.90;;;;;;4959962;28;88151;-72
2022/05/12 07:18:36;;;;;;;13.88;4.70;;;21.90;55.40;;;;;;4955691;28;88325;-72
2022/05/12 07:26:40;;;;;;;14.57;4.70;;;21.90;55.10;;;;;;4960408;28;87494;-72
2022/05/12 07:29:19;;;;;;;16.67;6.00;;;21.80;55.20;;;;;;4959243;28;87348;-72
2022/05/12 07:31:45;;;;;;;10.93;5.40;;;21.80;55.20;;;;;;4959523;28;87283;-72
2022/05/12 07:34:12;;;;;;;14.50;4.80;;;21.80;55.20;;;;;;4956788;28;88759;-72
2022/05/12 07:36:41;;;;;;;20.23;5.00;;;21.80;55.50;;;;;;4952887;28;87579;-72
2022/05/12 07:39:07;;;;;;;10.73;5.30;;;21.80;55.20;;;;;;4960333;28;86903;-72
2022/05/12 07:41:38;;;;;;;10.77;5.43;;;21.80;55.40;;;;;;4959327;28;87070;-72
2022/05/12 07:44:03;;;;;;;11.63;5.30;;;21.80;55.40;;;;;;4958608;28;89348;-72
2022/05/12 07:46:30;;;;;;;12.55;5.55;;;21.80;55.70;;;;;;4958484;28;89543;-72
2022/05/12 07:48:56;;;;;;;12.48;5.65;;;21.80;55.50;;;;;;4960384;28;87180;-72
2022/05/12 07:51:23;;;;;;;10.98;5.53;;;21.80;55.30;;;;;;4959731;28;87361;-72
2022/05/12 07:53:50;;;;;;;12.10;4.80;;;21.80;55.10;;;;;;4958910;28;88154;-72
2022/05/12 07:56:22;;;;;;;14.35;5.63;;;21.80;55.00;;;;;;4959212;28;87947;-72
2022/05/12 07:58:49;;;;;;;9.60;4.78;;;21.80;54.90;;;;;;4960155;28;87155;-72
2022/05/12 08:01:15;;;;;;;12.68;5.57;;;21.80;54.80;;;;;;4959865;28;87151;-72
2022/05/12 08:03:42;;;;;;;11.43;5.57;;;21.80;54.90;;;;;;4958088;28;90793;-72
2022/05/12 08:06:08;;;;;;;8.52;5.63;;;21.80;55.00;;;;;;4959218;28;87758;-72
2022/05/12 08:08:35;;;;;;;17.13;6.20;;;21.80;55.00;;;;;;4957310;28;87879;-72
2022/05/12 08:11:02;;;;;;;15.65;6.20;;;21.80;54.60;;;;;;4961120;28;87442;-72
2022/05/12 08:13:27;;;;;;;12.00;5.32;;;21.80;54.90;;;;;;4959165;28;86972;-72
2022/05/12 08:15:54;;;;;;;12.45;6.30;;;21.80;54.60;;;;;;4958715;28;89636;-72
2022/05/12 08:18:21;;;;;;;12.85;6.18;;;21.70;54.40;;;;;;4960520;28;86960;-72
2022/05/12 08:20:48;;;;;;;8.73;5.00;;;21.70;54.70;;;;;;4960048;28;87186;-72
2022/05/12 08:23:14;;;;;;;10.20;5.40;;;21.70;54.90;;;;;;4959490;28;87811;-72
2022/05/12 08:25:40;;;;;;;9.23;5.95;;;21.70;54.60;;;;;;4959380;28;86731;-72
2022/05/12 08:28:07;;;;;;;9.40;5.63;;;21.80;54.60;;;;;;4960089;28;87264;-72
2022/05/12 08:30:33;;;;;;;10.73;5.32;;;21.70;54.40;;;;;;4959650;28;86989;-72
2022/05/12 08:32:59;;;;;;;9.93;5.30;;;21.70;54.40;;;;;;4958332;28;88843;-72
2022/05/12 08:35:26;;;;;;;13.15;5.72;;;21.70;54.10;;;;;;4958645;28;88313;-72
2022/05/12 08:37:52;;;;;;;13.02;5.57;;;21.70;54.00;;;;;;4959925;28;87065;-72
2022/05/12 08:40:49;;;;;;;11.30;5.53;;;21.70;54.20;;;;;;4959990;28;87327;-72
2022/05/12 08:43:25;;;;;;;13.30;6.43;;;21.70;54.20;;;;;;4959317;28;87613;-72
2022/05/12 08:46:03;;;;;;;9.68;5.38;;;21.70;54.30;;;;;;4955370;28;87265;-72
2022/05/12 08:48:28;;;;;;;13.70;6.22;;;21.70;54.70;;;;;;4958410;28;87305;-72
2022/05/12 08:50:55;;;;;;;14.95;6.55;;;21.70;54.10;;;;;;4959683;28;86231;-71
2022/05/12 08:53:29;;;;;;;10.82;6.20;;;21.70;54.10;;;;;;4959256;28;88435;-72
2022/05/12 08:55:57;;;;;;;11.93;6.80;;;21.70;54.10;;;;;;4956526;28;87836;-72
2022/05/12 08:58:30;;;;;;;16.85;7.25;;;21.70;54.20;;;;;;4958377;28;88299;-72
2022/05/12 09:01:13;;;;;;;14.13;7.13;;;21.80;54.40;;;;;;4958155;28;87353;-72
2022/05/12 09:03:57;;;;;;;11.30;6.30;;;21.70;54.20;;;;;;4959318;28;87577;-72
2022/05/12 09:06:28;;;;;;;8.18;6.03;;;21.80;54.50;;;;;;4957726;28;90791;-72
2022/05/12 09:09:23;;;;;;;11.68;5.65;;;21.80;54.60;;;;;;4957984;28;87463;-72
2022/05/12 09:12:10;;;;;;;22.92;6.43;;;21.80;55.00;;;;;;4957548;28;89629;-72
2022/05/12 09:15:14;;;;;;;16.23;6.45;;;21.80;55.10;;;;;;4958248;28;88014;-72
2022/05/12 09:17:57;;;;;;;11.57;6.80;;;21.90;55.00;;;;;;4958788;28;87999;-72
2022/05/12 09:20:25;;;;;;;12.05;6.63;;;21.80;55.00;;;;;;4953344;28;86900;-72
2022/05/12 09:22:51;;;;;;;13.82;6.55;;;21.80;54.90;;;;;;4953381;28;87208;-72
2022/05/12 09:25:34;;;;;;;21.65;6.10;;;21.80;55.00;;;;;;4957824;28;88962;-72
2022/05/12 09:28:20;;;;;;;13.27;7.20;;;21.80;55.20;;;;;;4957870;28;88787;-72
2022/05/12 09:30:48;;;;;;;12.77;7.80;;;21.80;55.00;;;;;;4944766;28;87528;-72
2022/05/12 09:33:31;;;;;;;11.20;5.97;;;21.80;54.60;;;;;;4953180;28;87361;-72
2022/05/12 09:35:59;;;;;;;17.27;6.93;;;21.90;55.00;;;;;;4955540;28;87575;-72
2022/05/12 09:38:26;;;;;;;17.30;7.35;;;21.90;55.00;;;;;;4962103;28;87812;-72
2022/05/12 09:40:54;;;;;;;15.25;8.25;;;21.90;55.00;;;;;;4961919;28;87286;-72
2022/05/12 09:43:29;;;;;;;12.10;6.88;;;21.90;55.10;;;;;;4962044;28;86524;-72
2022/05/12 09:45:59;;;;;;;13.85;7.45;;;21.90;55.10;;;;;;4961642;28;88363;-72
2022/05/12 09:48:40;;;;;;;13.23;6.20;;;21.90;55.30;;;;;;4960918;28;87824;-72
2022/05/12 09:51:30;;;;;;;11.85;7.60;;;21.90;54.80;;;;;;4960358;28;87848;-72
2022/05/12 09:54:13;;;;;;;20.77;7.63;;;21.90;55.30;;;;;;4961716;28;86866;-72
2022/05/12 09:56:40;;;;;;;15.55;7.28;;;21.90;55.10;;;;;;4953549;28;89892;-72
2022/05/12 09:59:15;;;;;;;14.32;7.30;;;21.90;55.30;;;;;;4961304;28;88320;-72
2022/05/12 10:02:01;;;;;;;10.18;6.72;;;21.90;55.20;;;;;;4962205;28;87184;-72
2022/05/12 10:10:25;;;;;;;8.52;5.57;;;21.90;55.30;;;;;;4961344;28;87046;-72
2022/05/12 10:13:22;;;;;;;11.18;6.18;;;21.90;55.40;;;;;;4954877;28;86824;-72
2022/05/12 10:15:52;;;;;;;12.88;7.07;;;21.90;55.40;;;;;;4971814;28;88747;-73
2022/05/12 10:18:33;;;;;;;10.90;6.55;;;21.90;55.10;;;;;;4961260;28;88287;-72
2022/05/12 10:21:12;;;;;;;10.68;6.50;;;21.90;55.00;;;;;;4958368;28;88989;-72
2022/05/12 10:23:49;;;;;;;9.90;5.83;;;21.90;55.00;;;;;;4962282;28;87215;-72
2022/05/12 10:26:20;;;;;;;11.90;5.95;;;21.90;55.00;;;;;;4961974;28;86774;-72
2022/05/12 10:28:57;;;;;;;10.48;6.38;;;21.90;54.90;;;;;;4961112;28;88660;-72
2022/05/12 10:31:42;;;;;;;11.88;6.18;;;21.90;54.20;;;;;;4958738;28;91146;-72
2022/05/12 10:35:04;;;;;;;9.05;5.18;;;21.90;54.00;;;;;;4961458;28;86812;-72
2022/05/12 10:37:47;;;;;;;11.45;4.97;;;21.90;53.40;;;;;;4940949;28;86567;-72
2022/05/12 10:40:26;;;;;;;12.32;4.53;;;21.90;54.00;;;;;;4955370;28;87501;-72
2022/05/12 10:43:21;;;;;;;33.33;9.48;;;21.90;53.90;;;;;;4960976;28;87289;-72
2022/05/12 10:46:15;;;;;;;33.38;11.55;;;21.90;53.40;;;;;;4961190;28;87889;-72
2022/05/12 10:49:04;;;;;;;28.42;10.13;;;21.90;53.50;;;;;;4960277;28;86951;-72
2022/05/12 10:51:48;;;;;;;30.02;8.82;;;21.90;53.70;;;;;;4958752;28;91723;-72
2022/05/12 10:54:45;;;;;;;16.05;6.43;;;21.90;53.40;;;;;;4961209;28;87977;-73
2022/05/12 10:57:43;;;;;;;22.15;5.53;;;21.90;53.00;;;;;;4961419;28;87290;-73
2022/05/12 11:00:09;;;;;;;18.55;6.22;;;22.00;53.10;;;;;;4961216;28;87349;-72
2022/05/12 11:02:42;;;;;;;23.83;6.68;;;22.00;53.20;;;;;;4960935;28;87052;-72
2022/05/12 11:05:42;;;;;;;15.95;6.13;;;22.10;53.20;;;;;;4960915;28;88242;-73
2022/05/12 11:08:33;;;;;;;13.65;5.43;;;22.00;53.30;;;;;;4960047;28;87066;-72
2022/05/12 11:11:03;;;;;;;16.98;5.47;;;22.00;53.00;;;;;;4960517;28;87512;-73
2022/05/12 11:13:57;;;;;;;18.35;5.40;;;22.00;53.30;;;;;;4960462;28;88761;-72
2022/05/12 11:16:29;;;;;;;12.63;4.93;;;22.00;53.20;;;;;;4959258;28;88842;-73
2022/05/12 11:19:09;;;;;;;14.65;5.50;;;22.00;53.30;;;;;;4960216;28;87110;-73
2022/05/12 11:21:47;;;;;;;17.17;5.40;;;22.00;53.10;;;;;;4959852;28;87316;-72
2022/05/12 11:24:30;;;;;;;13.82;5.18;;;22.00;53.10;;;;;;4959080;28;87245;-72
2022/05/12 11:27:31;;;;;;;13.52;4.90;;;22.00;53.30;;;;;;4958685;28;87369;-73
2022/05/12 11:30:21;;;;;;;11.48;5.15;;;22.00;53.20;;;;;;4961205;28;87089;-72
2022/05/12 11:32:56;;;;;;;11.43;5.30;;;22.00;53.30;;;;;;4960780;28;86353;-73
2022/05/12 11:35:23;;;;;;;9.75;4.53;;;22.00;53.70;;;;;;4960352;28;88161;-73
2022/05/12 11:37:53;;;;;;;10.93;5.05;;;22.00;53.50;;;;;;4960994;28;87342;-73
2022/05/12 11:40:43;;;;;;;12.88;4.90;;;21.90;53.50;;;;;;4960443;28;88280;-73
2022/05/12 11:46:34;;;;;;;11.00;5.15;;;22.00;53.60;;;;;;4960785;28;87278;-73
2022/05/12 11:49:26;;;;;;;17.00;4.82;;;22.00;53.70;;;;;;4960295;28;87302;-72
2022/05/12 11:52:13;;;;;;;10.32;4.50;;;22.00;53.70;;;;;;4959386;28;87600;-72
2022/05/12 11:54:48;;;;;;;12.30;5.15;;;22.00;53.60;;;;;;4960252;28;88220;-72
2022/05/12 11:57:31;;;;;;;13.55;4.97;;;22.00;53.60;;;;;;4960162;28;87235;-73
2022/05/12 11:59:59;;;;;;;17.67;5.20;;;22.00;53.90;;;;;;4960707;28;87900;-72
2022/05/12 12:02:28;;;;;;;9.48;4.32;;;22.00;53.70;;;;;;4960663;28;87153;-73
2022/05/12 12:05:00;;;;;;;12.40;5.05;;;22.00;53.80;;;;;;4960290;28;87823;-72
2022/05/12 12:07:32;;;;;;;10.93;5.07;;;22.00;53.90;;;;;;4958855;28;89027;-72
2022/05/12 12:10:25;;;;;;;8.73;5.00;;;22.00;53.90;;;;;;4958422;28;88690;-72
2022/05/12 12:12:58;;;;;;;13.45;5.38;;;22.00;54.00;;;;;;4959767;28;87215;-72
2022/05/12 12:15:23;;;;;;;9.43;4.93;;;22.00;53.90;;;;;;4960515;28;87299;-72
2022/05/12 12:17:50;;;;;;;9.48;4.35;;;22.00;54.00;;;;;;4959774;28;88438;-72
2022/05/12 12:20:24;;;;;;;8.25;4.22;;;22.00;54.10;;;;;;4959591;28;87642;-73
2022/05/12 12:22:52;;;;;;;11.23;4.65;;;22.00;54.10;;;;;;4959957;28;87578;-72
2022/05/12 12:25:30;;;;;;;10.55;4.75;;;22.00;54.10;;;;;;4959688;28;86840;-72
2022/05/12 12:28:08;;;;;;;7.22;4.43;;;22.00;54.20;;;;;;4959697;28;87967;-72
2022/05/12 12:30:57;;;;;;;10.15;5.10;;;22.00;54.10;;;;;;4959445;28;87290;-72
2022/05/12 12:33:29;;;;;;;10.52;4.75;;;22.00;54.10;;;;;;4959008;28;87939;-72
2022/05/12 12:35:57;;;;;;;9.88;5.03;;;22.00;54.10;;;;;;4958863;28;87225;-73
2022/05/12 12:38:44;;;;;;;6.22;3.83;;;22.00;54.20;;;;;;4958567;28;88561;-72
2022/05/12 12:41:12;;;;;;;9.75;4.47;;;22.00;53.70;;;;;;4958378;28;87757;-72
2022/05/12 12:43:41;;;;;;;8.25;4.50;;;22.00;53.90;;;;;;4959288;28;87368;-72
2022/05/12 12:46:26;;;;;;;7.05;4.30;;;22.00;53.90;;;;;;4959753;28;86956;-72
2022/05/12 12:49:03;;;;;;;9.43;4.40;;;22.00;54.00;;;;;;4949952;28;87906;-72
2022/05/12 12:51:34;;;;;;;8.57;4.18;;;22.00;54.20;;;;;;4958806;28;90875;-72
2022/05/12 12:57:22;;;;;;;10.27;4.88;;;22.00;54.20;;;;;;4959361;28;87208;-72
2022/05/12 12:59:53;;;;;;;9.02;4.25;;;22.00;54.10;;;;;;4957992;28;88552;-72
2022/05/12 13:02:41;;;;;;;7.47;3.35;;;22.00;54.20;;;;;;4952932;28;87971;-72
2022/05/12 13:05:14;;;;;;;7.53;4.10;;;22.10;51.60;;;;;;4958044;28;86936;-72
2022/05/12 13:07:41;;;;;;;7.88;3.70;;;22.10;52.90;;;;;;4948922;28;87637;-73
2022/05/12 13:10:17;;;;;;;10.10;4.22;;;22.10;53.70;;;;;;4958758;28;88102;-73
2022/05/12 13:13:11;;;;;;;9.75;4.53;;;22.10;53.80;;;;;;4958642;28;87928;-72
2022/05/12 13:15:45;;;;;;;7.50;3.72;;;22.00;53.50;;;;;;4957553;28;87910;-72
2022/05/12 13:18:23;;;;;;;6.25;2.83;;;22.00;52.50;;;;;;4958547;28;86926;-72
2022/05/12 13:20:50;;;;;;;6.15;3.17;;;22.00;52.00;;;;;;4957133;28;88179;-73
2022/05/12 13:23:25;;;;;;;6.45;2.65;;;22.00;51.40;;;;;;4958049;28;90286;-72
2022/05/12 13:25:52;;;;;;;6.93;2.60;;;22.00;50.50;;;;;;4958239;28;88158;-72
2022/05/12 13:28:26;;;;;;;6.22;2.58;;;22.00;49.30;;;;;;4958912;28;87082;-72
2022/05/12 13:31:24;;;;;;;4.20;2.45;;;22.00;50.10;;;;;;4958580;28;88693;-73
2022/05/12 13:34:00;;;;;;;7.80;3.00;;;22.00;49.90;;;;;;4958459;28;88117;-72